createdAt,value
2023-03-23T00:03:11.919Z,0.61
2023-03-23T00:07:12.038Z,0.62
2023-03-23T00:11:12.055Z,0.61
2023-03-23T00:15:12.159Z,0.60
2023-03-23T00:19:12.239Z,0.60
2023-03-23T00:23:12.245Z,0.60
2023-03-23T00:27:12.310Z,0.61
2023-03-23T00:31:12.426Z,0.61
2023-03-23T00:35:12.520Z,0.59
2023-03-23T00:39:12.576Z,0.59
2023-03-23T00:43:12.652Z,0.59
2023-03-23T00:47:12.778Z,0.60
2023-03-23T00:51:12.907Z,0.59
2023-03-23T00:55:12.977Z,0.60
2023-03-23T00:59:12.995Z,0.59
2023-03-23T01:03:13.028Z,0.59
2023-03-23T01:07:13.000Z,0.61
2023-03-23T01:11:13.010Z,0.60
2023-03-23T01:15:13.040Z,0.59
2023-03-23T01:19:13.084Z,0.60
2023-03-23T01:23:13.151Z,0.59
2023-03-23T01:27:13.105Z,0.59
2023-03-23T01:31:14.596Z,0.58
2023-03-23T01:35:13.103Z,0.58
2023-03-23T01:39:13.090Z,0.58
2023-03-23T01:43:13.094Z,0.58
2023-03-23T01:47:13.096Z,0.59
2023-03-23T01:51:13.112Z,0.57
2023-03-23T01:55:13.026Z,0.57
2023-03-23T01:59:13.449Z,0.57
2023-03-23T02:03:13.011Z,0.57
2023-03-23T02:07:12.990Z,0.57
2023-03-23T02:11:12.958Z,0.58
2023-03-23T02:15:13.918Z,0.58
2023-03-23T02:19:12.856Z,0.57
2023-03-23T02:23:12.855Z,0.57
2023-03-23T02:27:12.809Z,0.57
2023-03-23T02:31:12.780Z,0.56
2023-03-23T02:35:12.766Z,0.56
2023-03-23T02:39:12.725Z,0.56
2023-03-23T02:43:12.642Z,0.56
2023-03-23T02:47:12.602Z,0.57
2023-03-23T02:51:12.669Z,0.57
2023-03-23T02:55:12.551Z,0.55
2023-03-23T02:59:12.475Z,0.56
2023-03-23T03:03:12.446Z,0.57
2023-03-23T03:07:12.458Z,0.55
2023-03-23T03:11:12.492Z,0.56
2023-03-23T03:15:12.468Z,0.56
2023-03-23T03:19:12.477Z,0.55
2023-03-23T03:23:13.486Z,0.55
2023-03-23T03:27:12.588Z,0.55
2023-03-23T03:31:12.560Z,0.55
2023-03-23T03:35:12.573Z,0.56
2023-03-23T03:39:12.612Z,0.56
2023-03-23T03:43:12.731Z,0.55
2023-03-23T03:47:12.655Z,0.54
2023-03-23T03:51:12.669Z,0.55
2023-03-23T03:55:12.715Z,0.55
2023-03-23T03:59:21.569Z,0.54
2023-03-23T04:03:13.725Z,0.54
2023-03-23T04:07:12.662Z,0.54
2023-03-23T04:11:12.641Z,0.54
2023-03-23T04:15:13.597Z,0.54
2023-03-23T04:19:13.003Z,0.55
2023-03-23T04:23:12.574Z,0.54
2023-03-23T04:27:12.490Z,0.54
2023-03-23T04:31:12.491Z,0.53
2023-03-23T04:35:14.158Z,0.54
2023-03-23T04:39:12.385Z,0.53
2023-03-23T04:43:12.390Z,0.54
2023-03-23T04:47:12.319Z,0.53
2023-03-23T04:51:12.279Z,0.53
2023-03-23T04:55:12.497Z,0.53
2023-03-23T04:59:12.198Z,0.54
2023-03-23T05:03:12.236Z,0.52
2023-03-23T05:07:12.343Z,0.53
2023-03-23T05:11:12.422Z,0.53
2023-03-23T05:15:12.537Z,0.53
2023-03-23T05:19:12.658Z,0.52
2023-03-23T05:23:15.510Z,0.52
2023-03-23T05:27:12.695Z,0.52
2023-03-23T05:31:13.043Z,0.51
2023-03-23T05:35:12.619Z,0.53
2023-03-23T05:39:12.540Z,0.53
2023-03-23T05:43:12.560Z,0.54
2023-03-23T05:47:12.556Z,0.55
2023-03-23T05:51:12.421Z,0.55
2023-03-23T05:55:12.385Z,0.55
2023-03-23T05:59:12.404Z,0.54
2023-03-23T06:03:12.347Z,0.54
2023-03-23T06:07:12.312Z,0.54
2023-03-23T06:11:12.269Z,0.54
2023-03-23T06:15:12.359Z,0.53
2023-03-23T06:19:14.057Z,0.54
2023-03-23T06:23:12.669Z,0.50
2023-03-23T06:27:15.779Z,0.50
2023-03-23T06:35:31.794Z,0.50
2023-03-23T06:43:51.368Z,0.50
2023-03-23T06:47:58.202Z,0.51
2023-03-23T07:09:07.549Z,0.50
2023-03-23T07:13:07.754Z,0.50
2023-03-23T07:17:07.768Z,0.56
2023-03-23T07:21:23.107Z,0.53
2023-03-23T07:25:35.986Z,0.50
2023-03-23T07:38:06.630Z,0.50
2023-03-23T07:42:12.484Z,0.50
2023-03-23T07:46:20.234Z,0.47
2023-03-23T07:54:23.542Z,0.50
2023-03-23T07:58:23.768Z,0.51
2023-03-23T08:02:23.608Z,0.54
2023-03-23T08:06:23.732Z,0.55
2023-03-23T08:10:24.452Z,0.54
2023-03-23T08:14:23.557Z,0.52
2023-03-23T08:22:52.806Z,0.50
2023-03-23T08:26:49.078Z,0.50
2023-03-23T08:30:43.842Z,0.50
2023-03-23T08:34:42.737Z,0.50
2023-03-23T08:43:01.823Z,0.50
2023-03-23T08:51:35.045Z,0.50
2023-03-23T08:55:21.398Z,0.50
2023-03-23T08:59:24.346Z,0.51
2023-03-23T09:03:22.968Z,0.51
2023-03-23T09:07:21.140Z,0.48
2023-03-23T09:11:29.162Z,0.50
2023-03-23T09:19:42.608Z,0.50
2023-03-23T09:23:49.257Z,0.50
2023-03-23T09:27:46.914Z,0.50
2023-03-23T09:36:13.193Z,0.50
2023-03-23T09:40:06.457Z,0.50
2023-03-23T09:48:24.104Z,0.50
2023-03-23T09:52:22.952Z,0.50
2023-03-23T09:56:32.322Z,0.50
2023-03-23T10:00:17.922Z,0.50
2023-03-23T10:08:41.048Z,0.50
2023-03-23T10:12:38.170Z,0.50
2023-03-23T10:16:37.890Z,0.50
2023-03-23T10:20:40.652Z,0.50
2023-03-23T10:28:56.021Z,0.50
2023-03-23T10:32:55.877Z,0.52
2023-03-23T10:36:58.270Z,0.51
2023-03-23T10:40:55.974Z,0.53
2023-03-23T10:44:56.433Z,0.61
2023-03-23T10:53:15.169Z,0.50
2023-03-23T10:57:15.372Z,0.51
2023-03-23T11:01:18.728Z,0.53
2023-03-23T11:09:15.916Z,0.55
2023-03-23T11:13:15.916Z,0.55
2023-03-23T11:17:16.086Z,0.56
2023-03-23T11:21:15.406Z,0.56
2023-03-23T11:25:15.285Z,0.54
2023-03-23T11:29:17.403Z,0.52
2023-03-23T11:33:15.548Z,0.59
2023-03-23T11:37:18.490Z,0.63
2023-03-23T11:41:15.327Z,0.61
2023-03-23T11:45:15.333Z,0.61
2023-03-23T11:49:25.095Z,0.63
2023-03-23T11:53:16.261Z,0.63
2023-03-23T11:57:16.380Z,0.65
2023-03-23T12:01:15.427Z,0.70
2023-03-23T12:05:15.401Z,0.74
2023-03-23T12:09:15.992Z,0.82
2023-03-23T12:13:18.630Z,0.88
2023-03-23T12:17:17.058Z,0.92
2023-03-23T12:21:18.489Z,0.92
2023-03-23T12:25:15.412Z,0.88
2023-03-23T12:29:15.378Z,0.87
2023-03-23T12:33:15.559Z,0.83
2023-03-23T12:37:15.598Z,0.82
2023-03-23T12:41:15.675Z,0.79
2023-03-23T12:45:15.741Z,0.78
2023-03-23T12:49:15.918Z,0.77
2023-03-23T12:53:16.098Z,0.77
2023-03-23T12:57:16.165Z,0.76
2023-03-23T13:01:16.037Z,0.75
2023-03-23T13:05:15.924Z,0.73
2023-03-23T13:09:16.011Z,0.71
2023-03-23T13:13:21.183Z,0.70
2023-03-23T13:17:16.884Z,0.69
2023-03-23T13:21:15.999Z,0.68
2023-03-23T13:25:16.134Z,0.66
2023-03-23T13:29:16.366Z,0.66
2023-03-23T13:33:16.555Z,0.65
2023-03-23T13:37:17.134Z,0.65
2023-03-23T13:41:16.999Z,0.64
2023-03-23T13:45:17.185Z,0.64
2023-03-23T13:49:17.353Z,0.62
2023-03-23T13:53:17.377Z,0.61
2023-03-23T13:57:17.501Z,0.61
2023-03-23T14:01:17.269Z,0.61
2023-03-23T14:05:17.234Z,0.61
2023-03-23T14:09:17.975Z,0.62
2023-03-23T14:13:17.077Z,0.62
2023-03-23T14:17:18.075Z,0.61
2023-03-23T14:21:17.016Z,0.59
2023-03-23T14:25:16.983Z,0.60
2023-03-23T14:29:16.962Z,0.58
2023-03-23T14:33:16.882Z,0.58
2023-03-23T14:37:19.566Z,0.58
2023-03-23T14:41:17.607Z,0.57
2023-03-23T14:45:16.772Z,0.57
2023-03-23T14:49:16.833Z,0.57
2023-03-23T14:53:16.686Z,0.56
2023-03-23T14:57:16.669Z,0.57
2023-03-23T15:01:16.626Z,0.56
2023-03-23T15:05:16.609Z,0.55
2023-03-23T15:09:16.591Z,0.55
2023-03-23T15:13:17.087Z,0.55
2023-03-23T15:17:16.543Z,0.55
2023-03-23T15:21:16.619Z,0.54
2023-03-23T15:25:16.376Z,0.53
2023-03-23T15:29:16.471Z,0.53
2023-03-23T15:33:17.453Z,0.53
2023-03-23T15:37:20.474Z,0.53
2023-03-23T15:41:16.369Z,0.53
2023-03-23T15:45:16.344Z,0.52
2023-03-23T15:49:16.226Z,0.52
2023-03-23T15:53:16.189Z,0.51
2023-03-23T15:57:16.270Z,0.52
2023-03-23T16:01:16.441Z,0.53
2023-03-23T16:05:16.586Z,0.50
2023-03-23T16:09:16.757Z,0.54
2023-03-23T16:13:16.859Z,0.52
2023-03-23T16:17:16.715Z,0.52
2023-03-23T16:21:16.625Z,0.51
2023-03-23T16:25:16.706Z,0.52
2023-03-23T16:29:28.274Z,0.51
2023-03-23T16:33:17.622Z,0.51
2023-03-23T16:37:16.697Z,0.51
2023-03-23T16:41:16.641Z,0.51
2023-03-23T16:45:16.566Z,0.51
2023-03-23T16:49:16.513Z,0.50
2023-03-23T16:53:16.440Z,0.52
2023-03-23T16:57:16.424Z,0.51
2023-03-23T17:01:16.442Z,0.51
2023-03-23T17:05:16.362Z,0.51
2023-03-23T17:09:16.367Z,0.50
2023-03-23T17:13:16.268Z,0.51
2023-03-23T17:17:16.280Z,0.51
2023-03-23T17:21:16.212Z,0.51
2023-03-23T17:25:16.229Z,0.51
2023-03-23T17:29:16.094Z,0.50
2023-03-23T17:33:16.121Z,0.51
2023-03-23T17:37:16.510Z,0.50
2023-03-23T17:41:16.068Z,0.52
2023-03-23T17:45:16.149Z,0.51
2023-03-23T17:49:16.113Z,0.52
2023-03-23T17:53:16.191Z,0.51
2023-03-23T17:57:16.150Z,0.51
2023-03-23T18:01:16.131Z,0.51
2023-03-23T18:05:16.041Z,0.50
2023-03-23T18:09:16.015Z,0.52
2023-03-23T18:13:16.042Z,0.51
2023-03-23T18:17:16.060Z,0.51
2023-03-23T18:21:15.981Z,0.52
2023-03-23T18:25:15.850Z,0.51
2023-03-23T18:29:15.828Z,0.51
2023-03-23T18:33:16.210Z,0.50
2023-03-23T18:37:15.915Z,0.51
2023-03-23T18:41:15.787Z,0.50
2023-03-23T18:45:15.754Z,0.51
2023-03-23T18:49:16.619Z,0.51
2023-03-23T18:53:15.706Z,0.51
2023-03-23T18:57:15.700Z,0.52
2023-03-23T19:01:15.631Z,0.51
2023-03-23T19:05:15.524Z,0.51
2023-03-23T19:09:15.603Z,0.52
2023-03-23T19:13:15.771Z,0.52
2023-03-23T19:17:15.865Z,0.52
2023-03-23T19:21:18.682Z,0.51
2023-03-23T19:25:16.040Z,0.51
2023-03-23T19:29:25.400Z,0.52
2023-03-23T19:33:16.886Z,0.51
2023-03-23T19:37:16.265Z,0.51
2023-03-23T19:41:16.426Z,0.50
2023-03-23T19:45:15.940Z,0.51
2023-03-23T19:49:15.753Z,0.51
2023-03-23T19:53:15.919Z,0.51
2023-03-23T19:57:15.807Z,0.51
2023-03-23T20:01:15.849Z,0.51
2023-03-23T20:05:16.528Z,0.50
2023-03-23T20:09:15.604Z,0.51
2023-03-23T20:13:15.580Z,0.50
2023-03-23T20:17:15.857Z,0.51
2023-03-23T20:21:15.534Z,0.51
2023-03-23T20:25:15.666Z,0.51
2023-03-23T20:29:15.416Z,0.51
2023-03-23T20:33:15.515Z,0.51
2023-03-23T20:37:15.657Z,0.51
2023-03-23T20:41:15.871Z,0.52
2023-03-23T20:45:15.964Z,0.53
2023-03-23T20:49:16.223Z,0.51
2023-03-23T20:53:16.519Z,0.52
2023-03-23T20:57:16.376Z,0.52
2023-03-23T21:01:16.530Z,0.51
2023-03-23T21:05:16.630Z,0.52
2023-03-23T21:09:16.287Z,0.52
2023-03-23T21:13:16.265Z,0.52
2023-03-23T21:17:16.246Z,0.52
2023-03-23T21:21:16.303Z,0.52
2023-03-23T21:25:16.281Z,0.52
2023-03-23T21:29:16.250Z,0.51
2023-03-23T21:33:16.228Z,0.52
2023-03-23T21:37:16.204Z,0.52
2023-03-23T21:41:16.172Z,0.51
2023-03-23T21:45:16.755Z,0.50
2023-03-23T21:49:16.109Z,0.51
2023-03-23T21:53:15.983Z,0.52
2023-03-23T21:57:16.045Z,0.52
2023-03-23T22:01:15.953Z,0.51
2023-03-23T22:05:15.897Z,0.51
2023-03-23T22:09:15.880Z,0.51
2023-03-23T22:13:15.922Z,0.51
2023-03-23T22:17:15.814Z,0.51
2023-03-23T22:21:15.802Z,0.51
2023-03-23T22:25:15.817Z,0.52
2023-03-23T22:29:15.710Z,0.51
2023-03-23T22:33:15.725Z,0.52
2023-03-23T22:37:15.762Z,0.51
2023-03-23T22:41:17.712Z,0.51
2023-03-23T22:45:15.857Z,0.51
2023-03-23T22:49:15.702Z,0.51
2023-03-23T22:53:15.888Z,0.51
2023-03-23T22:57:16.140Z,0.51
2023-03-23T23:01:16.266Z,0.52
2023-03-23T23:05:16.322Z,0.51
2023-03-23T23:09:16.298Z,0.51
2023-03-23T23:13:19.223Z,0.51
2023-03-23T23:17:16.432Z,0.51
2023-03-23T23:21:16.414Z,0.51
2023-03-23T23:25:16.368Z,0.52
2023-03-23T23:29:16.249Z,0.51
2023-03-23T23:33:16.209Z,0.50
2023-03-23T23:37:16.171Z,0.52
2023-03-23T23:41:16.161Z,0.52
2023-03-23T23:45:16.125Z,0.51
2023-03-23T23:49:16.104Z,0.51
2023-03-23T23:53:16.091Z,0.50
2023-03-23T23:57:16.023Z,0.51
